createdAt,value
2022-09-28T00:00:23.715Z,3.55
2022-09-28T00:01:26.247Z,3.60
2022-09-28T00:02:28.679Z,3.90
2022-09-28T00:03:30.328Z,3.78
2022-09-28T00:04:33.441Z,3.80
2022-09-28T00:05:35.406Z,3.95
2022-09-28T00:06:37.281Z,3.75
2022-09-28T00:07:38.823Z,3.80
2022-09-28T00:08:40.763Z,3.60
2022-09-28T00:09:42.340Z,3.75
2022-09-28T00:10:45.642Z,3.75
2022-09-28T00:11:47.412Z,3.80
2022-09-28T00:12:53.057Z,3.40
2022-09-28T00:13:57.695Z,3.40
2022-09-28T00:14:59.425Z,3.70
2022-09-28T00:16:05.687Z,3.45
2022-09-28T00:17:08.259Z,3.22
2022-09-28T00:18:09.899Z,3.40
2022-09-28T00:19:13.177Z,3.13
2022-09-28T00:20:16.720Z,3.28
2022-09-28T00:21:22.092Z,3.33
2022-09-28T00:22:23.664Z,2.90
2022-09-28T00:23:25.203Z,2.92
2022-09-28T00:24:27.855Z,2.88
2022-09-28T00:25:29.807Z,3.42
2022-09-28T00:26:33.493Z,3.13
2022-09-28T00:27:35.041Z,3.30
2022-09-28T00:28:36.585Z,2.70
2022-09-28T00:29:38.494Z,2.97
2022-09-28T00:30:40.089Z,2.95
2022-09-28T00:31:41.713Z,3.10
2022-09-28T00:32:43.355Z,2.55
2022-09-28T00:33:45.272Z,2.72
2022-09-28T00:34:47.015Z,2.97
2022-09-28T00:35:56.120Z,2.75
2022-09-28T00:36:58.569Z,2.50
2022-09-28T00:38:00.186Z,2.30
2022-09-28T00:39:08.871Z,2.30
2022-09-28T00:40:10.482Z,2.20
2022-09-28T00:41:12.264Z,2.55
2022-09-28T00:42:20.959Z,2.70
2022-09-28T00:43:24.091Z,2.40
2022-09-28T00:44:25.627Z,2.20
2022-09-28T00:45:27.283Z,2.55
2022-09-28T00:46:33.296Z,2.72
2022-09-28T00:47:51.947Z,2.08
2022-09-28T00:49:03.118Z,2.45
2022-09-28T00:50:22.485Z,2.25
2022-09-28T00:51:26.138Z,2.20
2022-09-28T00:53:08.767Z,2.53
2022-09-28T00:54:12.770Z,2.65
2022-09-28T00:55:18.872Z,2.25
2022-09-28T00:56:23.824Z,2.20
2022-09-28T00:57:26.316Z,2.67
2022-09-28T00:58:32.024Z,2.30
2022-09-28T00:59:34.056Z,2.20
2022-09-28T01:00:35.931Z,2.30
2022-09-28T01:01:38.157Z,2.33
2022-09-28T01:02:39.903Z,2.25
2022-09-28T01:03:45.903Z,2.22
2022-09-28T01:04:48.452Z,2.03
2022-09-28T01:05:52.843Z,2.10
2022-09-28T01:06:55.764Z,2.47
2022-09-28T01:07:58.152Z,2.20
2022-09-28T01:09:03.753Z,2.10
2022-09-28T01:10:06.934Z,2.28
2022-09-28T01:11:08.805Z,2.13
2022-09-28T01:12:10.341Z,2.10
2022-09-28T01:13:13.096Z,2.13
2022-09-28T01:14:15.783Z,2.58
2022-09-28T01:15:17.671Z,2.00
2022-09-28T01:16:46.132Z,2.20
2022-09-28T01:17:56.626Z,2.17
2022-09-28T01:19:19.626Z,2.25
2022-09-28T01:20:31.792Z,2.38
2022-09-28T01:21:50.032Z,2.35
2022-09-28T01:23:18.999Z,2.40
2022-09-28T01:24:45.151Z,2.80
2022-09-28T01:26:14.908Z,2.50
2022-09-28T01:27:29.336Z,2.40
2022-09-28T01:28:32.089Z,2.22
2022-09-28T01:29:42.159Z,2.53
2022-09-28T01:31:08.041Z,2.40
2022-09-28T01:32:26.139Z,2.45
2022-09-28T01:33:34.756Z,2.30
2022-09-28T01:34:43.191Z,2.50
2022-09-28T01:35:58.251Z,2.10
2022-09-28T01:37:01.685Z,2.63
2022-09-28T01:38:07.952Z,2.50
2022-09-28T01:39:16.403Z,2.80
2022-09-28T01:40:21.385Z,2.92
2022-09-28T01:41:24.914Z,2.83
2022-09-28T01:42:32.408Z,2.75
2022-09-28T01:43:39.334Z,2.80
2022-09-28T01:44:45.760Z,3.08
2022-09-28T01:46:07.988Z,3.30
2022-09-28T01:47:12.982Z,3.15
2022-09-28T01:48:21.318Z,2.67
2022-09-28T01:49:34.317Z,2.75
2022-09-28T01:50:39.519Z,2.80
2022-09-28T01:51:55.404Z,3.00
2022-09-28T01:53:11.270Z,3.08
2022-09-28T01:54:16.386Z,2.90
2022-09-28T01:55:17.990Z,3.17
2022-09-28T01:56:27.271Z,2.92
2022-09-28T01:57:39.745Z,3.20
2022-09-28T01:59:12.201Z,2.90
2022-09-28T02:00:16.185Z,3.20
2022-09-28T02:01:29.816Z,3.80
2022-09-28T02:03:01.123Z,3.17
2022-09-28T02:04:21.695Z,2.97
2022-09-28T02:05:32.221Z,3.00
2022-09-28T02:06:45.830Z,3.42
2022-09-28T02:08:07.715Z,2.92
2022-09-28T02:09:12.644Z,3.20
2022-09-28T02:10:19.846Z,3.42
2022-09-28T02:11:22.874Z,3.35
2022-09-28T02:12:35.731Z,3.65
2022-09-28T02:14:11.951Z,3.10
2022-09-28T02:15:24.413Z,3.25
2022-09-28T02:16:41.695Z,3.50
2022-09-28T02:17:43.582Z,3.97
2022-09-28T02:18:45.922Z,3.50
2022-09-28T02:19:47.640Z,3.55
2022-09-28T02:20:58.746Z,3.42
2022-09-28T02:22:13.080Z,3.80
2022-09-28T02:23:16.720Z,3.85
2022-09-28T02:24:42.699Z,3.53
2022-09-28T02:25:49.973Z,3.70
2022-09-28T02:26:54.691Z,3.50
2022-09-28T02:28:04.256Z,4.35
2022-09-28T02:29:05.883Z,3.10
2022-09-28T02:30:08.238Z,3.78
2022-09-28T02:31:09.940Z,3.38
2022-09-28T02:32:11.551Z,3.85
2022-09-28T02:33:24.275Z,3.63
2022-09-28T02:34:26.146Z,3.58
2022-09-28T02:35:28.116Z,4.05
2022-09-28T02:36:30.329Z,3.75
2022-09-28T02:37:31.893Z,3.53
2022-09-28T02:38:33.799Z,3.80
2022-09-28T02:39:35.372Z,3.75
2022-09-28T02:40:40.742Z,4.15
2022-09-28T02:41:48.393Z,3.80
2022-09-28T02:43:15.333Z,3.97
2022-09-28T02:44:50.948Z,3.90
2022-09-28T02:46:23.393Z,3.70
2022-09-28T02:47:56.208Z,3.70
2022-09-28T02:49:29.687Z,4.03
2022-09-28T02:50:55.943Z,4.30
2022-09-28T02:52:25.837Z,4.75
2022-09-28T02:54:16.686Z,3.58
2022-09-28T02:55:40.075Z,3.85
2022-09-28T02:56:54.443Z,3.72
2022-09-28T02:58:19.223Z,3.45
2022-09-28T02:59:48.195Z,4.03
2022-09-28T03:01:28.690Z,3.47
2022-09-28T03:03:00.417Z,3.72
2022-09-28T03:04:37.503Z,3.70
2022-09-28T03:05:53.314Z,4.47
2022-09-28T03:06:59.121Z,3.85
2022-09-28T03:08:11.468Z,3.42
2022-09-28T03:09:17.529Z,4.22
2022-09-28T03:10:23.777Z,3.70
2022-09-28T03:11:31.898Z,3.70
2022-09-28T03:12:34.749Z,4.20
2022-09-28T03:13:37.144Z,3.92
2022-09-28T03:14:39.018Z,4.18
2022-09-28T03:15:45.189Z,3.30
2022-09-28T03:16:49.483Z,4.05
2022-09-28T03:17:51.205Z,4.38
2022-09-28T03:18:52.776Z,3.70
2022-09-28T03:19:54.333Z,4.22
2022-09-28T03:20:56.034Z,4.15
2022-09-28T03:21:59.070Z,3.95
2022-09-28T03:23:23.224Z,4.65
2022-09-28T03:24:22.804Z,4.75
2022-09-28T03:25:24.358Z,4.88
2022-09-28T03:26:25.884Z,4.63
2022-09-28T03:27:27.435Z,4.75
2022-09-28T03:28:29.775Z,4.90
2022-09-28T03:29:33.054Z,4.53
2022-09-28T03:30:34.628Z,4.50
2022-09-28T03:31:36.249Z,4.95
2022-09-28T03:32:38.380Z,4.80
2022-09-28T03:33:39.927Z,4.75
2022-09-28T03:34:41.489Z,5.00
2022-09-28T03:35:47.484Z,4.75
2022-09-28T03:36:49.013Z,4.95
2022-09-28T03:37:54.622Z,4.65
2022-09-28T03:38:56.260Z,4.93
2022-09-28T03:39:57.868Z,5.18
2022-09-28T03:41:00.403Z,4.97
2022-09-28T03:42:02.038Z,5.63
2022-09-28T03:43:03.579Z,5.55
2022-09-28T03:44:05.159Z,5.60
2022-09-28T03:45:07.298Z,5.72
2022-09-28T03:46:08.902Z,5.50
2022-09-28T03:47:10.681Z,5.85
2022-09-28T03:48:12.230Z,6.03
2022-09-28T03:49:13.800Z,5.90
2022-09-28T03:50:15.993Z,5.57
2022-09-28T03:51:17.571Z,6.03
2022-09-28T03:52:19.138Z,6.68
2022-09-28T03:53:20.829Z,6.13
2022-09-28T03:54:22.385Z,6.43
2022-09-28T03:55:23.984Z,6.70
2022-09-28T03:56:25.680Z,5.97
2022-09-28T03:57:27.207Z,7.05
2022-09-28T03:58:28.933Z,7.10
2022-09-28T03:59:30.794Z,6.22
2022-09-28T04:00:32.610Z,6.82
2022-09-28T04:01:34.284Z,6.13
2022-09-28T04:02:36.083Z,6.45
2022-09-28T04:03:37.812Z,6.15
2022-09-28T04:04:39.355Z,6.88
2022-09-28T04:05:49.031Z,6.05
2022-09-28T04:06:50.572Z,6.18
2022-09-28T04:07:56.065Z,5.45
2022-09-28T04:08:57.642Z,5.53
2022-09-28T04:09:59.260Z,5.60
2022-09-28T04:11:01.504Z,5.60
2022-09-28T04:12:04.471Z,5.90
2022-09-28T04:13:06.287Z,5.55
2022-09-28T04:14:07.961Z,5.82
2022-09-28T04:15:09.957Z,4.97
2022-09-28T04:16:11.927Z,6.63
2022-09-28T04:17:13.537Z,4.47
2022-09-28T04:18:15.150Z,5.10
2022-09-28T04:19:16.808Z,5.30
2022-09-28T04:20:18.402Z,4.68
2022-09-28T04:21:20.917Z,5.15
2022-09-28T04:22:23.245Z,4.95
2022-09-28T04:23:25.039Z,5.43
2022-09-28T04:24:26.663Z,5.28
2022-09-28T04:25:28.251Z,5.00
2022-09-28T04:26:30.345Z,5.25
2022-09-28T04:27:51.069Z,5.50
2022-09-28T04:29:11.287Z,4.97
2022-09-28T04:30:12.982Z,5.70
2022-09-28T04:31:17.962Z,5.57
2022-09-28T04:32:19.609Z,5.95
2022-09-28T04:33:21.194Z,5.88
2022-09-28T04:34:23.401Z,5.78
2022-09-28T04:35:25.018Z,5.45
2022-09-28T04:36:26.565Z,6.30
2022-09-28T04:37:30.823Z,6.25
2022-09-28T04:38:51.783Z,6.07
2022-09-28T04:39:54.135Z,5.95
2022-09-28T04:40:55.781Z,6.00
2022-09-28T04:41:57.390Z,4.97
2022-09-28T04:42:59.144Z,5.45
2022-09-28T04:44:00.902Z,5.80
2022-09-28T04:45:04.669Z,4.85
2022-09-28T04:46:06.400Z,5.50
2022-09-28T04:47:08.055Z,4.85
2022-09-28T04:48:09.821Z,4.70
2022-09-28T04:49:11.532Z,4.38
2022-09-28T04:50:13.097Z,3.90
2022-09-28T04:51:14.739Z,4.15
2022-09-28T04:52:18.483Z,3.85
2022-09-28T04:53:20.530Z,3.70
2022-09-28T04:54:22.069Z,3.70
2022-09-28T04:55:23.683Z,3.85
2022-09-28T04:56:25.294Z,4.10
2022-09-28T04:57:26.840Z,4.03
2022-09-28T04:58:28.807Z,4.10
2022-09-28T04:59:30.344Z,4.35
2022-09-28T05:00:35.122Z,3.83
2022-09-28T05:01:36.964Z,3.88
2022-09-28T05:02:38.954Z,3.95
2022-09-28T05:03:41.109Z,3.70
2022-09-28T05:04:42.740Z,3.00
2022-09-28T05:05:45.420Z,3.20
2022-09-28T05:06:46.976Z,3.55
2022-09-28T05:07:48.505Z,3.33
2022-09-28T05:08:50.066Z,3.15
2022-09-28T05:09:51.640Z,3.10
2022-09-28T05:11:00.484Z,2.90
2022-09-28T05:12:02.209Z,2.65
2022-09-28T05:13:04.039Z,3.30
2022-09-28T05:14:06.264Z,3.40
2022-09-28T05:15:08.011Z,8.55
2022-09-28T05:16:10.735Z,5.80
2022-09-28T05:17:12.321Z,5.00
2022-09-28T05:18:14.116Z,3.90
2022-09-28T05:19:15.923Z,4.00
2022-09-28T05:20:17.507Z,3.90
2022-09-28T05:21:20.019Z,3.50
2022-09-28T05:22:21.543Z,4.03
2022-09-28T05:23:23.103Z,3.35
2022-09-28T05:24:24.698Z,3.25
2022-09-28T05:25:26.360Z,2.70
2022-09-28T05:26:27.917Z,2.30
2022-09-28T05:27:29.493Z,2.38
2022-09-28T05:28:33.045Z,2.80
2022-09-28T05:29:34.603Z,2.40
2022-09-28T05:30:36.549Z,2.50
2022-09-28T05:31:38.164Z,2.45
2022-09-28T05:32:41.270Z,1.95
2022-09-28T05:33:42.829Z,2.20
2022-09-28T05:34:44.388Z,2.03
2022-09-28T05:35:49.758Z,2.15
2022-09-28T05:36:54.082Z,2.45
2022-09-28T05:37:56.545Z,2.40
2022-09-28T05:38:58.556Z,1.90
2022-09-28T05:40:00.189Z,2.55
2022-09-28T05:41:06.306Z,2.95
2022-09-28T05:42:08.187Z,3.30
2022-09-28T05:43:09.735Z,3.10
2022-09-28T05:44:11.336Z,3.75
2022-09-28T05:45:13.271Z,3.90
2022-09-28T05:46:14.935Z,3.90
2022-09-28T05:47:16.623Z,4.13
2022-09-28T05:48:18.166Z,4.10
2022-09-28T05:49:19.715Z,4.15
2022-09-28T05:50:21.473Z,4.38
2022-09-28T05:51:24.637Z,4.90
2022-09-28T05:52:26.224Z,3.97
2022-09-28T05:53:27.769Z,3.47
2022-09-28T05:54:29.352Z,3.50
2022-09-28T05:55:31.554Z,4.30
2022-09-28T05:56:33.450Z,4.20
2022-09-28T05:57:34.973Z,4.13
2022-09-28T05:58:36.520Z,7.00
2022-09-28T05:59:38.166Z,4.70
2022-09-28T06:00:39.760Z,5.88
2022-09-28T06:01:41.351Z,4.43
2022-09-28T06:02:42.993Z,3.90
2022-09-28T06:03:44.672Z,4.40
2022-09-28T06:04:48.215Z,3.28
2022-09-28T06:05:50.026Z,3.78
2022-09-28T06:06:51.579Z,4.05
2022-09-28T06:07:56.538Z,3.58
2022-09-28T06:08:58.092Z,3.50
2022-09-28T06:09:59.905Z,4.00
2022-09-28T06:11:02.467Z,3.55
2022-09-28T06:12:04.084Z,4.28
2022-09-28T06:13:06.696Z,3.70
2022-09-28T06:14:08.711Z,3.50
2022-09-28T06:15:10.536Z,2.90
2022-09-28T06:16:16.872Z,2.95
2022-09-28T06:17:18.473Z,3.15
2022-09-28T06:18:20.331Z,3.55
2022-09-28T06:19:21.869Z,3.00
2022-09-28T06:20:24.403Z,3.53
2022-09-28T06:21:26.002Z,3.50
2022-09-28T06:22:27.553Z,3.10
2022-09-28T06:23:29.098Z,3.50
2022-09-28T06:24:30.682Z,2.97
2022-09-28T06:25:32.267Z,3.08
2022-09-28T06:26:33.938Z,3.20
2022-09-28T06:27:35.915Z,3.30
2022-09-28T06:28:37.515Z,3.50
2022-09-28T06:29:39.062Z,2.80
2022-09-28T06:30:41.840Z,3.22
2022-09-28T06:31:43.527Z,3.00
2022-09-28T06:32:45.055Z,3.30
2022-09-28T06:33:48.382Z,3.75
2022-09-28T06:34:54.032Z,3.70
2022-09-28T06:35:59.136Z,3.40
2022-09-28T06:37:02.130Z,3.25
2022-09-28T06:38:04.664Z,3.30
2022-09-28T06:39:06.401Z,3.25
2022-09-28T06:40:08.419Z,3.88
2022-09-28T06:41:11.578Z,3.10
2022-09-28T06:42:13.171Z,3.60
2022-09-28T06:43:15.371Z,3.45
2022-09-28T06:44:17.045Z,3.03
2022-09-28T06:45:21.726Z,3.20
2022-09-28T06:46:23.419Z,2.78
2022-09-28T06:47:25.206Z,3.50
2022-09-28T06:48:26.920Z,3.58
2022-09-28T06:49:30.175Z,3.00
2022-09-28T06:50:37.961Z,3.58
2022-09-28T06:51:39.522Z,4.00
2022-09-28T06:52:41.067Z,3.35
2022-09-28T06:53:42.642Z,3.55
2022-09-28T06:54:44.194Z,3.28
2022-09-28T06:55:49.004Z,3.60
2022-09-28T06:56:50.550Z,4.03
2022-09-28T06:58:03.126Z,4.20
2022-09-28T06:59:04.746Z,3.88
2022-09-28T07:00:07.033Z,3.63
2022-09-28T07:01:09.390Z,3.70
2022-09-28T07:02:14.407Z,3.53
2022-09-28T07:03:23.024Z,4.32
2022-09-28T07:04:24.573Z,3.60
2022-09-28T07:05:29.762Z,3.72
2022-09-28T07:06:31.429Z,4.00
2022-09-28T07:07:33.080Z,3.97
2022-09-28T07:08:34.685Z,4.03
2022-09-28T07:09:41.533Z,3.72
2022-09-28T07:10:46.814Z,3.40
2022-09-28T07:11:48.470Z,3.25
2022-09-28T07:12:51.483Z,3.15
2022-09-28T07:13:53.043Z,3.38
2022-09-28T07:14:58.192Z,3.15
2022-09-28T07:16:00.049Z,3.35
2022-09-28T07:17:13.155Z,2.60
2022-09-28T07:18:17.806Z,2.80
2022-09-28T07:19:19.643Z,2.75
2022-09-28T07:20:21.272Z,2.75
2022-09-28T07:21:29.792Z,2.60
2022-09-28T07:22:41.996Z,3.63
2022-09-28T07:23:52.879Z,3.10
2022-09-28T07:24:55.576Z,3.35
2022-09-28T07:25:58.199Z,3.15
2022-09-28T07:26:59.813Z,3.50
2022-09-28T07:28:02.531Z,3.53
2022-09-28T07:29:04.832Z,3.83
2022-09-28T07:30:07.150Z,4.00
2022-09-28T07:31:09.550Z,3.60
2022-09-28T07:32:11.211Z,3.33
2022-09-28T07:33:15.829Z,4.10
2022-09-28T07:34:18.590Z,3.95
2022-09-28T07:35:20.353Z,3.88
2022-09-28T07:36:22.711Z,3.92
2022-09-28T07:37:24.800Z,3.60
2022-09-28T07:38:26.693Z,4.00
2022-09-28T07:39:28.281Z,4.00
2022-09-28T07:40:50.004Z,3.85
2022-09-28T07:41:54.388Z,4.38
2022-09-28T07:43:05.252Z,3.70
2022-09-28T07:44:06.986Z,4.53
2022-09-28T07:45:08.937Z,4.40
2022-09-28T07:46:13.636Z,4.72
2022-09-28T07:47:15.343Z,4.50
2022-09-28T07:48:18.649Z,4.50
2022-09-28T07:49:22.400Z,4.85
2022-09-28T07:50:24.087Z,4.03
2022-09-28T07:51:25.976Z,4.20
2022-09-28T07:52:28.718Z,4.90
2022-09-28T07:53:30.977Z,4.63
2022-09-28T07:54:32.537Z,4.18
2022-09-28T07:55:34.259Z,4.70
2022-09-28T07:56:35.837Z,3.50
2022-09-28T07:57:37.436Z,4.15
2022-09-28T07:58:39.634Z,4.10
2022-09-28T07:59:41.203Z,4.43
2022-09-28T08:00:49.575Z,3.88
2022-09-28T08:01:51.219Z,3.80
2022-09-28T08:02:52.813Z,4.10
2022-09-28T08:03:56.121Z,4.18
2022-09-28T08:04:58.106Z,4.40
2022-09-28T08:06:01.311Z,3.97
2022-09-28T08:07:03.604Z,4.05
2022-09-28T08:08:05.187Z,4.57
2022-09-28T08:09:06.977Z,4.40
2022-09-28T08:10:08.898Z,4.93
2022-09-28T08:11:16.654Z,3.88
2022-09-28T08:12:19.679Z,4.10
2022-09-28T08:13:23.450Z,3.92
2022-09-28T08:14:28.515Z,4.20
2022-09-28T08:15:38.141Z,4.35
2022-09-28T08:16:39.694Z,3.70
2022-09-28T08:17:46.727Z,4.03
2022-09-28T08:18:51.405Z,3.92
2022-09-28T08:20:11.676Z,3.95
2022-09-28T08:21:31.868Z,3.40
2022-09-28T08:22:33.539Z,3.53
2022-09-28T08:23:35.478Z,3.33
2022-09-28T08:24:37.040Z,3.97
2022-09-28T08:25:38.730Z,4.28
2022-09-28T08:26:40.399Z,4.25
2022-09-28T08:27:41.957Z,4.20
2022-09-28T08:28:45.112Z,4.20
2022-09-28T08:29:46.780Z,4.80
2022-09-28T08:30:49.199Z,3.90
2022-09-28T08:31:50.829Z,4.55
2022-09-28T08:32:52.381Z,3.88
2022-09-28T08:33:54.439Z,4.18
2022-09-28T08:34:56.003Z,5.13
2022-09-28T08:35:59.187Z,3.90
2022-09-28T08:37:00.793Z,4.00
2022-09-28T08:38:03.370Z,4.60
2022-09-28T08:39:05.154Z,4.55
2022-09-28T08:40:15.557Z,5.40
2022-09-28T08:41:44.668Z,5.15
2022-09-28T08:42:46.278Z,4.22
2022-09-28T08:44:23.786Z,4.97
2022-09-28T08:45:30.783Z,4.68
2022-09-28T08:46:48.063Z,4.40
2022-09-28T08:48:30.922Z,4.50
2022-09-28T08:49:42.081Z,4.30
2022-09-28T08:51:14.672Z,5.35
2022-09-28T08:52:23.332Z,5.20
2022-09-28T08:53:33.028Z,4.65
2022-09-28T08:55:09.820Z,4.10
2022-09-28T08:56:18.403Z,4.15
2022-09-28T08:57:46.872Z,3.60
2022-09-28T08:58:56.290Z,3.90
2022-09-28T08:59:59.997Z,3.33
2022-09-28T09:01:05.744Z,2.90
2022-09-28T09:02:18.199Z,3.67
2022-09-28T09:03:23.706Z,3.20
2022-09-28T09:04:25.773Z,3.73
2022-09-28T09:05:50.853Z,2.90
2022-09-28T09:07:21.867Z,3.03
2022-09-28T09:08:39.051Z,2.90
2022-09-28T09:09:49.552Z,2.97
2022-09-28T09:10:57.745Z,3.27
2022-09-28T09:12:29.287Z,3.40
2022-09-28T09:13:56.464Z,3.03
2022-09-28T09:15:33.715Z,3.20
2022-09-28T09:16:38.326Z,3.28
2022-09-28T09:17:58.692Z,2.80
2022-09-28T09:19:06.011Z,3.17
2022-09-28T09:20:20.303Z,3.05
2022-09-28T09:21:34.119Z,3.17
2022-09-28T09:22:41.032Z,3.75
2022-09-28T09:23:54.883Z,3.45
2022-09-28T09:25:22.952Z,3.67
2022-09-28T09:26:37.073Z,3.10
2022-09-28T09:27:47.676Z,3.35
2022-09-28T09:28:58.426Z,3.30
2022-09-28T09:30:06.231Z,3.60
2022-09-28T09:31:08.535Z,3.88
2022-09-28T09:32:20.458Z,3.60
2022-09-28T09:33:35.715Z,3.65
2022-09-28T09:34:48.907Z,3.78
2022-09-28T09:36:12.255Z,3.28
2022-09-28T09:37:35.357Z,3.75
2022-09-28T09:38:49.166Z,3.88
2022-09-28T09:40:12.362Z,3.75
2022-09-28T09:41:19.056Z,3.13
2022-09-28T09:42:51.305Z,3.88
2022-09-28T09:44:28.053Z,3.20
2022-09-28T09:45:51.723Z,4.68
2022-09-28T09:47:10.865Z,3.92
2022-09-28T09:48:36.376Z,3.20
2022-09-28T09:49:47.079Z,3.53
2022-09-28T09:50:57.861Z,3.58
2022-09-28T09:52:14.579Z,3.60
2022-09-28T09:53:26.898Z,3.38
2022-09-28T09:54:44.375Z,3.60
2022-09-28T09:55:50.291Z,3.38
2022-09-28T09:57:10.394Z,3.42
2022-09-28T09:58:35.613Z,3.80
2022-09-28T09:59:40.680Z,3.30
2022-09-28T10:00:45.529Z,2.60
2022-09-28T10:01:47.331Z,3.30
2022-09-28T10:02:50.715Z,3.35
2022-09-28T10:03:53.199Z,3.10
2022-09-28T10:05:14.744Z,3.53
2022-09-28T10:06:25.095Z,3.88
2022-09-28T10:07:42.582Z,2.92
2022-09-28T10:08:50.924Z,3.35
2022-09-28T10:09:58.187Z,3.50
2022-09-28T10:11:18.023Z,3.22
2022-09-28T10:12:21.851Z,3.80
2022-09-28T10:13:23.548Z,3.30
2022-09-28T10:14:25.664Z,3.70
2022-09-28T10:15:29.497Z,3.78
2022-09-28T10:16:32.979Z,3.55
2022-09-28T10:17:37.052Z,3.53
2022-09-28T10:18:39.037Z,3.53
2022-09-28T10:19:40.688Z,3.60
2022-09-28T10:20:45.030Z,3.80
2022-09-28T10:21:52.598Z,3.25
2022-09-28T10:22:58.247Z,3.80
2022-09-28T10:24:03.944Z,3.72
2022-09-28T10:25:06.701Z,3.65
2022-09-28T10:26:14.518Z,3.97
2022-09-28T10:27:23.523Z,3.92
2022-09-28T10:28:47.911Z,3.40
2022-09-28T10:30:08.197Z,3.70
2022-09-28T10:31:38.005Z,3.70
2022-09-28T10:32:41.811Z,3.80
2022-09-28T10:33:43.835Z,3.88
2022-09-28T10:34:50.189Z,3.67
2022-09-28T10:35:52.764Z,3.25
2022-09-28T10:37:06.784Z,3.58
2022-09-28T10:38:17.406Z,3.13
2022-09-28T10:39:31.592Z,3.08
2022-09-28T10:40:43.764Z,2.85
2022-09-28T10:41:52.083Z,2.88
2022-09-28T10:43:01.364Z,3.00
2022-09-28T10:44:07.042Z,3.40
2022-09-28T10:45:23.000Z,3.20
2022-09-28T10:46:24.958Z,2.63
2022-09-28T10:47:31.241Z,3.03
2022-09-28T10:48:59.107Z,2.90
2022-09-28T10:50:00.978Z,2.58
2022-09-28T10:51:07.256Z,3.05
2022-09-28T10:52:31.627Z,3.53
2022-09-28T10:53:38.602Z,3.28
2022-09-28T10:54:53.115Z,2.95
2022-09-28T10:56:05.593Z,3.17
2022-09-28T10:57:29.156Z,2.85
2022-09-28T10:58:40.682Z,3.10
2022-09-28T10:59:42.359Z,2.80
2022-09-28T11:00:44.913Z,2.75
2022-09-28T11:01:46.636Z,3.53
2022-09-28T11:02:48.314Z,3.30
2022-09-28T11:04:20.665Z,3.15
2022-09-28T11:05:27.728Z,2.70
2022-09-28T11:06:32.536Z,3.40
2022-09-28T11:07:46.050Z,3.08
2022-09-28T11:08:50.230Z,3.08
2022-09-28T11:09:54.499Z,2.75
2022-09-28T11:11:04.781Z,2.92
2022-09-28T11:12:16.168Z,3.28
2022-09-28T11:13:17.744Z,2.72
2022-09-28T11:14:28.473Z,2.63
2022-09-28T11:15:32.933Z,3.38
2022-09-28T11:16:36.300Z,2.92
2022-09-28T11:17:40.494Z,3.10
2022-09-28T11:18:42.048Z,2.80
2022-09-28T11:19:44.058Z,2.92
2022-09-28T11:20:45.716Z,3.00
2022-09-28T11:21:47.293Z,3.05
2022-09-28T11:22:52.331Z,2.83
2022-09-28T11:24:19.736Z,3.00
2022-09-28T11:25:26.249Z,2.20
2022-09-28T11:26:36.718Z,2.13
2022-09-28T11:27:38.641Z,2.20
2022-09-28T11:28:41.987Z,2.00
2022-09-28T11:29:50.939Z,2.40
2022-09-28T11:30:53.744Z,2.30
2022-09-28T11:32:00.860Z,1.98
2022-09-28T11:33:19.033Z,2.42
2022-09-28T11:34:36.190Z,2.35
2022-09-28T11:36:02.213Z,2.10
2022-09-28T11:37:27.513Z,2.40
2022-09-28T11:38:50.172Z,2.20
2022-09-28T11:40:09.780Z,2.00
2022-09-28T11:41:26.539Z,1.80
2022-09-28T11:42:55.043Z,2.00
2022-09-28T11:44:03.122Z,2.30
2022-09-28T11:45:32.384Z,2.28
2022-09-28T11:47:11.705Z,2.42
2022-09-28T11:48:22.478Z,2.40
2022-09-28T11:49:31.558Z,2.40
2022-09-28T11:50:38.831Z,2.13
2022-09-28T11:51:43.561Z,2.00
2022-09-28T11:53:18.932Z,2.67
2022-09-28T11:54:41.344Z,2.13
2022-09-28T11:55:58.476Z,1.90
2022-09-28T11:57:03.528Z,2.55
2022-09-28T11:58:12.825Z,2.15
2022-09-28T11:59:41.129Z,2.45
2022-09-28T12:00:49.763Z,1.90
2022-09-28T12:02:16.569Z,2.05
2022-09-28T12:03:28.776Z,1.95
2022-09-28T12:04:43.998Z,1.77
2022-09-28T12:06:07.876Z,1.83
2022-09-28T12:07:25.304Z,1.58
2022-09-28T12:08:34.559Z,1.50
2022-09-28T12:09:39.207Z,1.70
2022-09-28T12:10:50.981Z,1.70
2022-09-28T12:11:57.907Z,1.63
2022-09-28T12:13:10.052Z,1.70
2022-09-28T12:14:20.250Z,1.45
2022-09-28T12:15:26.616Z,1.35
2022-09-28T12:17:03.666Z,1.60
2022-09-28T12:18:13.054Z,1.63
2022-09-28T12:19:41.089Z,1.60
2022-09-28T12:20:47.907Z,1.95
2022-09-28T12:21:56.147Z,1.67
2022-09-28T12:23:27.883Z,1.63
2022-09-28T12:24:43.935Z,1.40
2022-09-28T12:25:53.243Z,1.17
2022-09-28T12:27:10.485Z,1.42
2022-09-28T12:28:39.031Z,1.88
2022-09-28T12:30:00.393Z,1.80
2022-09-28T12:31:15.750Z,1.10
2022-09-28T12:32:37.371Z,1.80
2022-09-28T12:33:47.939Z,1.77
2022-09-28T12:34:49.661Z,1.60
2022-09-28T12:36:03.210Z,1.98
2022-09-28T12:37:33.021Z,2.00
2022-09-28T12:40:47.790Z,1.60
2022-09-28T12:42:28.604Z,2.35
2022-09-28T12:43:54.434Z,1.95
2022-09-28T12:45:18.893Z,2.13
2022-09-28T12:46:39.222Z,2.60
2022-09-28T12:48:18.349Z,2.97
2022-09-28T12:50:27.184Z,2.55
2022-09-28T12:51:00.761Z,2.85
2022-09-28T12:52:37.097Z,2.60
2022-09-28T12:54:15.681Z,2.67
2022-09-28T12:55:56.362Z,2.10
2022-09-28T12:57:06.015Z,2.50
2022-09-28T12:58:36.802Z,2.70
2022-09-28T12:59:42.747Z,2.90
2022-09-28T13:01:03.479Z,2.53
2022-09-28T13:02:38.656Z,2.40
2022-09-28T13:04:12.754Z,2.13
2022-09-28T13:05:50.285Z,2.40
2022-09-28T13:07:30.116Z,2.25
2022-09-28T13:08:46.137Z,2.90
2022-09-28T13:10:14.340Z,2.40
2022-09-28T13:11:41.745Z,2.08
2022-09-28T13:12:52.895Z,2.58
2022-09-28T13:14:04.758Z,2.30
2022-09-28T13:15:22.492Z,2.88
2022-09-28T13:17:04.890Z,1.95
2022-09-28T13:18:29.166Z,2.10
2022-09-28T13:19:51.070Z,2.50
2022-09-28T13:21:09.201Z,2.43
2022-09-28T13:22:29.645Z,2.13
2022-09-28T13:23:39.197Z,2.30
2022-09-28T13:24:44.296Z,2.17
2022-09-28T13:26:01.410Z,1.90
2022-09-28T13:27:24.436Z,2.40
2022-09-28T13:28:28.863Z,2.43
2022-09-28T13:29:31.891Z,1.90
2022-09-28T13:30:38.494Z,2.60
2022-09-28T13:31:47.859Z,2.20
2022-09-28T13:32:50.601Z,2.20
2022-09-28T13:33:52.834Z,2.23
2022-09-28T13:34:55.236Z,2.47
2022-09-28T13:35:57.079Z,2.27
2022-09-28T13:37:07.751Z,2.90
2022-09-28T13:38:18.170Z,2.70
2022-09-28T13:39:45.636Z,2.65
2022-09-28T13:41:06.086Z,2.65
2022-09-28T13:42:09.753Z,2.22
2022-09-28T13:43:28.460Z,2.63
2022-09-28T13:45:05.412Z,2.75
2022-09-28T13:46:29.698Z,3.00
2022-09-28T13:47:42.409Z,3.00
2022-09-28T13:48:53.062Z,3.40
2022-09-28T13:50:15.860Z,3.28
2022-09-28T13:51:32.175Z,2.90
2022-09-28T13:53:01.095Z,2.97
2022-09-28T13:54:25.270Z,3.10
2022-09-28T13:55:55.972Z,3.35
2022-09-28T13:57:21.347Z,3.20
2022-09-28T13:58:31.364Z,2.80
2022-09-28T13:59:47.234Z,2.78
2022-09-28T14:00:53.692Z,2.67
2022-09-28T14:02:21.902Z,3.13
2022-09-28T14:03:25.672Z,2.85
2022-09-28T14:04:53.252Z,2.85
2022-09-28T14:06:00.694Z,2.75
2022-09-28T14:07:20.294Z,2.75
2022-09-28T14:08:38.873Z,2.55
2022-09-28T14:10:05.751Z,2.55
2022-09-28T14:11:27.548Z,2.30
2022-09-28T14:12:42.902Z,2.30
2022-09-28T14:13:44.414Z,1.80
2022-09-28T14:14:48.538Z,2.00
2022-09-28T14:15:51.201Z,2.23
2022-09-28T14:17:18.929Z,2.05
2022-09-28T14:18:33.458Z,1.70
2022-09-28T14:19:35.188Z,2.10
2022-09-28T14:20:37.206Z,1.97
2022-09-28T14:22:16.174Z,2.33
2022-09-28T14:23:57.578Z,1.70
2022-09-28T14:25:17.095Z,1.23
2022-09-28T14:26:41.727Z,1.10
2022-09-28T14:28:06.717Z,1.70
2022-09-28T14:29:32.020Z,1.33
2022-09-28T14:30:48.303Z,1.00
2022-09-28T14:31:49.983Z,1.50
2022-09-28T14:32:59.613Z,0.90
2022-09-28T14:34:03.545Z,1.23
2022-09-28T14:35:07.928Z,0.80
2022-09-28T14:36:47.308Z,1.20
2022-09-28T14:38:11.539Z,1.00
2022-09-28T14:39:47.406Z,1.10
2022-09-28T14:41:15.727Z,1.40
2022-09-28T14:42:24.078Z,1.07
2022-09-28T14:43:27.245Z,1.40
2022-09-28T14:44:48.800Z,1.20
2022-09-28T14:46:20.005Z,1.10
2022-09-28T14:47:35.984Z,1.10
2022-09-28T14:48:59.229Z,0.90
2022-09-28T14:50:14.829Z,1.20
2022-09-28T14:51:33.043Z,1.77
2022-09-28T14:52:50.479Z,1.60
2022-09-28T14:54:00.901Z,1.53
2022-09-28T14:55:03.065Z,1.40
2022-09-28T14:56:08.372Z,1.60
2022-09-28T14:57:17.076Z,1.30
2022-09-28T14:58:27.482Z,1.67
2022-09-28T14:59:35.956Z,1.20
2022-09-28T15:00:39.039Z,1.30
2022-09-28T15:01:42.867Z,1.07
2022-09-28T15:02:49.184Z,1.43
2022-09-28T15:03:55.963Z,1.43
2022-09-28T15:05:16.295Z,1.43
2022-09-28T15:06:21.117Z,1.30
2022-09-28T15:07:29.692Z,1.30
2022-09-28T15:08:38.823Z,1.30
2022-09-28T15:09:41.622Z,1.20
2022-09-28T15:10:48.098Z,1.37
2022-09-28T15:11:55.375Z,1.38
2022-09-28T15:13:01.846Z,1.23
2022-09-28T15:14:08.206Z,1.60
2022-09-28T15:15:25.475Z,1.60
2022-09-28T15:16:30.377Z,1.60
2022-09-28T15:17:39.522Z,1.80
2022-09-28T15:19:06.059Z,1.67
2022-09-28T15:20:30.679Z,2.07
2022-09-28T15:21:40.835Z,1.87
2022-09-28T15:22:47.284Z,1.85